Webster Mills, Pennsylvania
Current Conditions -  °F | °C
As of 8:53 AM on Thursday 29 Jan 2015 (Local Time) from KHGR Reporting Station
Haze Haze  
Wind Chill: -8°   Ceiling: Unl
Heat Index: -8°   Visibility: 6mi
Dew Point: -13°   Wind: 0mph
Humidity: 68%   Direction: NA
Pressure: 30.24"   Gusts: NA
Location:  39.973°N, 77.9661°W
Report Text: KHGR 291353Z 00000KT 6SM HZ CLR M08/M13 A3024 RMK AO2 SLP262 T10831133
Loading
Personal Weather Stations






























Interactive Weather Map New forecast layout! Learn more

10-Day Weather Forecast

Advertisements
Track Severe Weather on mobile